sim
Sign-in with your pilot id or email,
or register
Callsign
Passwort

Schedule Details

Flight Number: OEO4933
Departure: Milan Bergamo Il Caravaggio International Airport (LIME) at 16:05
Arrival: Munich Airport (EDDM) at 17:15

Weather Information
Getting current METAR information for LIME 192250Z 01004KT 8000 NSC 17/15 Q1018 NOSIG
Getting current METAR information for EDDM 192250Z VRB01KT CAVOK 09/08 Q1017 NOSIG

Schedule Frequency

Route Map